Latest Weather Observations for Roxby Downs

IDS60801

Issued at 8:01 am CDT Wednesday 7 December 2016 (issued every 30 minutes, with the page automatically refreshed every 10 minutes)

About weather observations | Map of weather stations | Latest weather observations for SA | Other Formats
Station Details ID: 016096 Name: OLYMPIC DAM AERODROME Lat: -30.48 Lon: 136.88 Height: 98.5 m
Data from the previous 72 hours. | See also: Recent months at Roxby Downs
Date/Time
CDT
Temp
°C
App
Temp
°C
Dew
Point
°C
Rel
Hum
%
Delta-T
°C
Wind Press
QNH
hPa
Press
MSL
hPa
Rain since
9am
mm
Dir  Spd
km/h
Gust
km/h
Spd
kts
Gust
kts
07/08:00am 22.9 22.3 18.4 76 2.8 N 19 26 10 14 1014.4 1013.9 0.0
07/07:30am 22.3 21.8 17.9 76 2.7 N 17 26 9 14 1014.4 1013.9 0.0
07/07:00am 21.0 20.3 16.4 75 2.8 N 15 20 8 11 1014.2 1013.7 0.0
07/06:30am 20.0 19.8 15.6 76 2.6 N 11 15 6 8 1014.2 1013.7 0.0
07/06:00am 20.1 19.8 15.5 75 2.7 NNE 11 13 6 7 1014.0 1013.5 0.0
07/05:30am 20.2 20.1 15.0 72 3.1 N 9 11 5 6 1013.9 1013.4 0.0
07/05:00am 19.3 19.3 14.3 73 2.9 N 7 9 4 5 1013.8 1013.3 0.0
07/04:30am 19.6 20.7 13.5 68 3.5 CALM 0 0 0 0 1013.4 1012.9 0.0
07/04:00am 20.7 20.9 14.1 66 3.8 NNE 6 7 3 4 1013.1 1012.6 0.0
07/03:30am 21.5 20.9 14.6 65 4.1 N 11 15 6 8 1012.8 1012.3 0.0
07/03:00am 20.9 20.2 14.3 66 3.9 N 11 13 6 7 1012.4 1011.9 0.0
07/02:30am 20.8 20.6 13.5 63 4.2 NE 7 7 4 4 1012.5 1012.0 0.0
07/02:00am 21.6 21.2 14.0 62 4.4 NE 9 11 5 6 1013.0 1012.5 0.0
07/01:30am 22.7 22.4 14.3 59 5.0 N 9 13 5 7 1013.5 1013.0 0.0
07/01:00am 23.3 22.6 14.3 57 5.3 N 11 15 6 8 1013.8 1013.3 0.0
07/12:30am 23.5 22.8 14.2 56 5.5 N 11 15 6 8 1014.1 1013.6 0.0
07/12:00am 24.0 23.5 13.8 53 6.0 N 9 11 5 6 1014.1 1013.6 0.0
 
Date/Time
CDT
Temp
°C
App
Temp
°C
Dew
Point
°C
Rel
Hum
%
Delta-T
°C
Wind Press
QNH
hPa
Press
MSL
hPa
Rain since
9am
mm
Dir  Spd
km/h
Gust
km/h
Spd
kts
Gust
kts
06/11:30pm 24.8 24.4 14.0 51 6.4 N 9 13 5 7 1014.4 1013.9 0.0
06/11:00pm 25.1 24.6 13.9 49 6.6 NNE 9 13 5 7 1014.3 1013.8 0.0
06/10:30pm 25.8 25.4 14.0 48 7.0 NE 9 11 5 6 1014.1 1013.6 0.0
06/10:00pm 26.6 26.2 14.0 46 7.5 NE 9 13 5 7 1014.1 1013.6 0.0
06/09:30pm 27.1 26.3 14.1 44 7.8 NNE 11 15 6 8 1013.9 1013.4 0.0
06/09:00pm 27.3 26.5 14.0 44 8.0 NNE 11 15 6 8 1014.2 1013.7 0.0
06/08:30pm 27.6 27.0 13.5 41 8.4 SSE 9 11 5 6 1013.9 1013.4 0.0
06/08:00pm 27.9 27.8 13.8 42 8.4 SSE 7 11 4 6 1013.7 1013.2 0.0
06/07:30pm 28.1 27.8 13.2 39 8.8 SE 7 13 4 7 1013.2 1012.7 0.0
06/07:00pm 29.3 29.1 13.1 37 9.6 E 6 13 3 7 1013.1 1012.6 0.0
06/06:30pm 28.5 27.8 13.2 39 9.1 ESE 9 13 5 7 1013.0 1012.5 0.0
06/06:00pm 29.4 27.9 13.2 37 9.7 SSW 13 20 7 11 1013.1 1012.6 0.0
06/05:30pm 29.2 29.1 13.4 38 9.4 W 6 13 3 7 1013.2 1012.7 0.0
06/05:00pm 29.0 29.0 13.6 38 9.2 SW 6 9 3 5 1013.2 1012.7 0.0
06/04:30pm 28.2 28.1 13.3 40 8.8 N 6 11 3 6 1013.4 1012.9 0.0
06/04:00pm 27.2 27.1 13.9 44 7.9 NNW 7 15 4 8 1013.5 1013.0 0.0
06/03:30pm 27.0 27.1 14.4 46 7.6 ENE 7 11 4 6 1013.9 1013.4 0.0
06/03:00pm 25.7 26.8 14.5 50 6.7 NNE 2 6 1 3 1014.4 1013.9 0.0
06/02:30pm 24.7 24.7 14.2 52 6.2 SSW 7 11 4 6 1015.1 1014.6 0.0
06/02:00pm 24.3 24.3 14.1 53 6.0 SSE 7 11 4 6 1015.1 1014.6 0.0
06/01:30pm 23.5 24.5 14.2 56 5.5 SE 2 9 1 5 1015.8 1015.3 0.0
06/01:00pm 23.5 23.2 14.5 57 5.3 SW 9 15 5 8 1016.8 1016.2 0.0
06/12:30pm 23.6 22.9 14.3 56 5.5 SW 11 15 6 8 1016.9 1016.3 0.0
06/12:00pm 23.8 23.9 13.9 54 5.8 S 6 11 3 6 1016.2 1015.6 0.0
06/11:30am 23.3 23.4 14.0 56 5.5 SSE 6 11 3 6 1015.5 1015.0 0.0
06/11:00am 23.1 23.5 13.6 55 5.5 ESE 4 13 2 7 1015.7 1015.2 0.0
06/10:30am 22.2 21.3 13.8 59 4.9 ESE 11 17 6 9 1015.0 1014.5 0.0
06/10:00am 21.6 21.4 13.5 60 4.7 E 7 9 4 5 1015.7 1015.2 0.0
06/09:30am 21.1 20.7 14.0 64 4.1 ESE 9 15 5 8 1015.2 1014.7 0.0
06/09:00am 20.6 20.6 14.3 67 3.7 SSE 7 11 4 6 1015.6 1015.1 0.4
06/08:30am 20.3 19.4 13.7 66 3.8 ESE 11 15 6 8 1014.7 1014.2 0.4
06/08:00am 19.7 18.0 13.6 68 3.5 ESE 15 19 8 10 1014.6 1014.1 0.4
06/07:30am 19.6 17.9 14.6 73 2.9 SSE 17 20 9 11 1014.8 1014.3 0.4
06/07:00am 19.5 17.7 14.5 73 2.9 SSE 17 20 9 11 1014.5 1014.0 0.4
06/06:30am 19.8 18.7 14.4 71 3.1 SSE 13 20 7 11 1014.0 1013.5 0.4
06/06:00am 19.7 18.6 14.3 71 3.1 SSE 13 15 7 8 1013.1 1012.6 0.4
06/05:30am 19.8 20.2 15.2 75 2.7 S 7 9 4 5 1013.1 1012.6 0.4
06/05:00am 19.9 20.2 14.5 71 3.2 ESE 6 9 3 5 1012.7 1012.2 0.4
06/04:30am 20.0 20.3 14.4 70 3.3 ENE 6 9 3 5 1012.8 1012.3 0.4
06/04:00am 20.0 20.4 14.8 72 3.1 E 6 7 3 4 1013.4 1012.9 0.4
06/03:30am 20.1 20.8 14.5 70 3.3 NNE 4 11 2 6 1013.1 1012.6 0.4
06/03:00am 20.6 19.9 13.3 63 4.2 SSW 9 15 5 8 1013.2 1012.7 0.2
06/02:30am 20.9 20.9 15.2 70 3.4 SW 9 15 5 8 1013.5 1013.0 0.2
06/02:00am 22.1 21.2 12.6 55 5.4 S 9 13 5 7 1013.4 1012.9 0.2
06/01:30am 22.0 20.0 12.8 56 5.3 SSW 15 20 8 11 1013.2 1012.7 0.2
06/01:00am 23.0 21.5 12.0 50 6.2 SSW 11 15 6 8 1013.2 1012.7 0.2
06/12:30am 24.0 22.0 10.3 42 7.6 SW 11 13 6 7 1013.3 1012.8 0.2
06/12:00am 25.1 21.8 8.1 34 9.1 SSW 15 20 8 11 1013.4 1012.9 0.2
 
Date/Time
CDT
Temp
°C
App
Temp
°C
Dew
Point
°C
Rel
Hum
%
Delta-T
°C
Wind Press
QNH
hPa
Press
MSL
hPa
Rain since
9am
mm
Dir  Spd
km/h
Gust
km/h
Spd
kts
Gust
kts
05/11:30pm 25.5 23.4 8.1 33 9.3 SW 9 11 5 6 1013.0 1012.5 0.2
05/11:00pm 25.9 23.0 8.0 32 9.6 SW 13 17 7 9 1012.8 1012.3 0.2
05/10:30pm 26.4 23.7 7.4 30 10.1 SSW 11 17 6 9 1012.5 1012.0 0.2
05/10:00pm 27.0 23.2 7.5 29 10.5 S 17 22 9 12 1012.4 1011.9 0.2
05/09:30pm 27.6 24.2 7.5 28 10.8 SW 15 20 8 11 1012.0 1011.5 0.2
05/09:00pm 28.7 24.6 7.9 27 11.3 SW 19 26 10 14 1012.1 1011.6 0.2
05/08:30pm 29.1 27.4 8.2 27 11.5 SW 7 9 4 5 1011.4 1010.9 0.2
05/08:00pm 29.5 27.5 8.5 27 11.6 SSE 9 13 5 7 1010.0 1009.4 0.2
05/07:30pm 29.9 26.9 7.8 25 12.1 SSE 13 17 7 9 1009.5 1008.9 0.2
05/07:00pm 30.4 27.1 8.2 25 12.3 S 15 19 8 10 1009.4 1008.8 0.2
05/06:30pm 30.6 28.5 8.3 25 12.4 S 9 15 5 8 1009.5 1008.9 0.2
05/06:00pm 30.4 27.0 7.6 24 12.5 SSE 15 19 8 10 1009.5 1008.9 0.2
05/05:30pm 30.7 28.2 8.4 25 12.4 S 11 19 6 10 1009.5 1008.9 0.2
05/05:00pm 30.4 27.0 7.6 24 12.5 SSW 15 20 8 11 1009.7 1009.1 0.2
05/04:30pm 30.9 27.2 8.0 24 12.7 SSW 17 22 9 12 1010.0 1009.4 0.2
05/04:00pm 30.8 27.2 8.5 25 12.4 S 17 24 9 13 1009.8 1009.2 0.2
05/03:30pm 29.9 26.8 8.9 27 11.7 S 15 20 8 11 1010.0 1009.4 0.2
05/03:00pm 29.8 27.2 9.3 28 11.5 SSW 13 17 7 9 1010.4 1009.9 0.2
05/02:30pm 28.9 26.1 10.1 31 10.6 SW 15 20 8 11 1010.7 1010.2 0.2
05/02:00pm 27.9 25.5 10.1 33 10.0 S 13 26 7 14 1011.1 1010.6 0.2
05/01:30pm 27.0 23.9 10.2 35 9.4 SSW 17 24 9 13 1011.7 1011.2 0.2
05/01:00pm 25.9 22.6 11.6 40 8.2 S 20 30 11 16 1011.7 1011.2 0.2
05/12:30pm 24.6 21.0 11.9 45 7.3 SSW 22 32 12 17 1012.1 1011.6 0.2
05/12:00pm 24.5 21.5 12.5 47 6.9 SSW 20 28 11 15 1012.3 1011.8 0.2
05/11:30am 22.9 19.0 12.2 51 6.1 SSW 24 30 13 16 1012.7 1012.2 0.0
05/11:00am 22.7 18.8 12.0 50 6.1 SSW 24 33 13 18 1012.6 1012.1 0.0
05/10:30am 22.1 18.1 11.8 52 5.8 S 24 30 13 16 1012.3 1011.8 0.0
05/10:00am 21.6 18.6 12.7 57 5.1 SSW 20 28 11 15 1012.4 1011.9 0.0
05/09:30am 21.5 19.2 14.6 65 4.1 SSW 20 26 11 14 1012.9 1012.4 0.0
05/09:00am 20.9 18.4 15.2 70 3.4 SSW 22 28 12 15 1012.7 1012.2 1.8
05/08:30am 20.9 19.6 15.7 72 3.1 SSW 17 26 9 14 1012.3 1011.8 1.8
05/08:00am 21.1 19.3 16.1 73 3.0 S 20 30 11 16 1011.4 1010.9 1.8
05/07:30am 21.0 20.1 15.8 72 3.1 S 15 22 8 12 1011.0 1010.5 1.8
05/07:00am 20.6 19.1 15.2 71 3.2 S 17 22 9 12 1010.1 1009.5 1.8
05/06:30am 20.5 18.9 15.1 71 3.2 S 17 22 9 12 1010.7 1010.2 1.8
05/06:00am 21.2 19.3 15.1 68 3.6 S 19 24 10 13 1010.7 1010.2 1.8
05/05:30am 21.5 20.2 15.8 70 3.4 SSW 17 22 9 12 1010.4 1009.9 1.8
05/05:00am 21.4 20.6 16.1 72 3.2 SSW 15 19 8 10 1009.7 1009.1 1.8
05/04:30am 21.7 20.5 16.2 71 3.3 SSW 17 24 9 13 1009.5 1008.9 1.8
05/04:00am 22.2 21.0 16.2 69 3.6 SSW 17 22 9 12 1009.4 1008.8 1.8
05/03:30am 22.8 21.6 16.1 66 4.1 SSW 17 24 9 13 1008.8 1008.2 1.8
05/03:00am 23.6 20.6 15.9 62 4.7 SSW 26 33 14 18 1008.2 1007.6 1.8
05/02:30am 24.2 22.1 16.2 61 4.9 SSW 22 33 12 18 1008.6 1008.0 1.8
05/02:00am 24.9 23.0 16.6 60 5.1 S 22 28 12 15 1008.7 1008.1 1.8
05/01:30am 25.2 24.0 17.4 62 4.9 SSW 20 28 11 15 1008.9 1008.3 1.8
05/01:00am 25.3 24.9 18.0 64 4.6 SW 17 24 9 13 1008.9 1008.3 1.8
05/12:30am 25.6 25.7 18.3 64 4.6 SSW 15 19 8 10 1008.9 1008.3 1.8
05/12:00am 25.4 27.5 20.9 76 3.0 WSW 11 15 6 8 1009.2 1008.6 1.8
 
Date/Time
CDT
Temp
°C
App
Temp
°C
Dew
Point
°C
Rel
Hum
%
Delta-T
°C
Wind Press
QNH
hPa
Press
MSL
hPa
Rain since
9am
mm
Dir  Spd
km/h
Gust
km/h
Spd
kts
Gust
kts
04/11:30pm 25.0 27.4 21.5 81 2.3 WSW 11 13 6 7 1009.0 1008.4 1.8
04/11:00pm 24.8 26.8 21.5 82 2.2 WSW 13 22 7 12 1008.9 1008.3 1.8
04/10:30pm 24.8 29.4 21.7 83 2.1 CALM 0 0 0 0 1008.1 1007.5 1.8
04/10:00pm 24.8 27.6 20.9 79 2.6 NE 7 9 4 5 1007.5 1006.9 1.8
04/09:30pm 25.0 26.6 20.7 77 2.8 NNE 13 19 7 10 1007.4 1006.8 1.8
04/09:00pm 25.2 28.4 20.5 75 3.1 NNW 4 9 2 5 1008.2 1007.6 1.8
04/08:30pm 26.0 27.5 20.6 72 3.6 NNW 13 24 7 13 1008.5 1007.9 1.2
04/08:00pm 26.0 24.7 20.6 72 3.6 N 28 35 15 19 1007.4 1006.8 1.0
04/07:30pm 26.6 25.9 19.5 65 4.6 NNE 22 30 12 16 1006.7 1006.1 0.0
04/07:00pm 27.8 26.9 19.1 59 5.6 NNE 22 30 12 16 1006.2 1005.6 0.0
04/06:30pm 30.5 27.8 17.6 46 8.3 N 28 43 15 23 1005.5 1004.9 0.0
04/06:00pm 32.7 30.0 15.7 36 10.7 NNW 24 35 13 19 1004.1 1003.6 0.0
04/05:49pm 32.9 30.0 15.0 34 11.1 NNW 24 65 13 35 1003.9 1003.4 0.0
04/05:30pm 36.0 33.9 13.5 26 13.9 NW 17 24 9 13 1003.9 1003.4 0.0
04/05:00pm 34.8 31.9 15.2 31 12.3 WSW 24 41 13 22 1004.2 1003.7 0.0
04/04:34pm 35.1 31.6 14.4 29 12.8 NW 26 48 14 26 1004.7 1004.2 0.0
04/04:30pm 37.3 34.1 11.3 21 15.6 NNW 19 33 10 18 1004.3 1003.8 0.0
04/04:00pm 37.7 35.5 10.9 20 15.9 NNW 13 24 7 13 1004.2 1003.7 0.0
04/03:30pm 37.2 34.4 11.2 21 15.5 N 17 28 9 15 1004.7 1004.2 0.0
04/03:00pm 35.7 33.3 11.4 23 14.5 N 15 24 8 13 1005.1 1004.6 0.0
04/02:30pm 35.4 32.9 11.1 23 14.4 N 15 24 8 13 1005.6 1005.0 0.0
04/02:00pm 35.4 33.8 11.7 23 14.1 N 11 20 6 11 1006.0 1005.4 0.0
04/01:30pm 35.1 33.5 11.5 24 14.1 NNE 11 20 6 11 1006.4 1005.8 0.0
04/01:00pm 35.6 34.5 10.6 22 14.7 SW 7 19 4 10 1006.8 1006.2 0.0
04/12:30pm 35.3 33.9 11.0 23 14.4 WNW 9 15 5 8 1007.3 1006.7 0.0
04/12:00pm 34.3 33.4 12.6 27 13.1 SW 9 11 5 6 1007.5 1006.9 0.0
04/11:30am 33.6 32.1 13.1 29 12.4 WSW 13 19 7 10 1008.0 1007.4 0.0
04/11:00am 33.7 33.0 13.2 29 12.4 SW 9 17 5 9 1008.2 1007.6 0.0
04/10:30am 32.1 32.0 13.3 31 11.4 SSE 6 11 3 6 1008.1 1007.5 0.0
04/10:00am 31.8 31.8 13.5 32 11.1 S 6 11 3 6 1008.5 1007.9 0.0
04/09:30am 31.3 31.3 13.6 34 10.7 SSE 6 13 3 7 1008.7 1008.1 0.0
04/09:00am 30.5 29.2 13.7 35 10.1 S 13 19 7 10 1009.1 1008.5 0.0
04/08:30am 30.0 27.4 13.3 36 10.0 S 19 24 10 13 1008.9 1008.3 0.0

Other Formats:

Comma delimited format used in spreadsheet applications
http://www.bom.gov.au/fwo/IDS60801/IDS60801.95658.axf

JavaScript Object Notation format (JSON) in row-major order
http://www.bom.gov.au/fwo/IDS60801/IDS60801.95658.json